createdAt,value
2019-06-07T00:00:40.098Z,15.68
2019-06-07T00:03:04.876Z,15.69
2019-06-07T00:05:33.620Z,15.68
2019-06-07T00:08:07.849Z,15.70
2019-06-07T00:10:36.570Z,15.66
2019-06-07T00:13:03.722Z,15.65
2019-06-07T00:15:32.632Z,15.50
2019-06-07T00:18:01.580Z,15.45
2019-06-07T00:20:30.173Z,15.40
2019-06-07T00:22:59.090Z,15.47
2019-06-07T00:28:08.894Z,15.47
2019-06-07T00:30:50.790Z,15.39
2019-06-07T00:33:11.052Z,15.32
2019-06-07T00:35:39.044Z,15.33
2019-06-07T00:38:07.671Z,15.34
2019-06-07T00:40:36.605Z,15.35
2019-06-07T00:43:05.426Z,15.36
2019-06-07T00:45:35.134Z,15.24
2019-06-07T00:48:04.867Z,15.24
2019-06-07T00:50:33.499Z,15.19
2019-06-07T00:53:27.339Z,15.26
2019-06-07T00:55:33.620Z,15.24
2019-06-07T00:58:02.578Z,15.23
2019-06-07T01:00:31.740Z,15.23
2019-06-07T01:03:00.770Z,15.21
2019-06-07T01:05:31.635Z,15.24
2019-06-07T01:08:01.828Z,15.19
2019-06-07T01:10:52.188Z,15.07
2019-06-07T01:15:39.448Z,15.24
2019-06-07T01:20:39.076Z,15.16
2019-06-07T01:23:51.778Z,15.13
2019-06-07T01:25:38.749Z,15.09
2019-06-07T01:30:45.491Z,15.22
2019-06-07T01:35:52.536Z,15.25
2019-06-07T01:41:01.519Z,15.14
2019-06-07T01:43:31.070Z,15.10
2019-06-07T01:46:00.494Z,15.05
2019-06-07T01:48:48.197Z,15.08
2019-06-07T01:51:00.250Z,15.07
2019-06-07T01:53:31.381Z,15.13
2019-06-07T01:55:59.879Z,15.13
2019-06-07T01:58:29.233Z,15.05
2019-06-07T02:00:58.128Z,15.08
2019-06-07T02:03:30.683Z,15.04
2019-06-07T02:05:57.235Z,15.04
2019-06-07T02:08:27.392Z,14.94
2019-06-07T02:10:57.904Z,14.98
2019-06-07T02:13:28.902Z,14.95
2019-06-07T02:15:57.835Z,14.88
2019-06-07T02:18:29.108Z,14.82
2019-06-07T02:20:57.546Z,14.77
2019-06-07T02:23:28.290Z,14.68
2019-06-07T02:25:57.831Z,14.49
2019-06-07T02:28:36.542Z,14.47
2019-06-07T02:31:00.161Z,14.43
2019-06-07T02:33:33.468Z,14.44
2019-06-07T02:38:38.498Z,14.27
2019-06-07T02:41:07.552Z,14.19
2019-06-07T02:43:37.309Z,14.09
2019-06-07T02:46:25.024Z,13.83
2019-06-07T02:48:43.241Z,13.77
2019-06-07T02:53:50.184Z,13.92
2019-06-07T02:56:48.834Z,13.70
2019-06-07T02:58:50.175Z,13.52
2019-06-07T03:01:19.374Z,13.69
2019-06-07T03:03:48.538Z,13.47
2019-06-07T03:06:19.605Z,12.98
2019-06-07T03:08:48.345Z,13.04
2019-06-07T03:11:17.854Z,13.02
2019-06-07T03:13:48.010Z,12.88
2019-06-07T03:16:23.624Z,12.71
2019-06-07T03:19:06.280Z,12.98
2019-06-07T03:21:42.835Z,13.02
2019-06-07T03:24:11.821Z,13.14
2019-06-07T03:27:31.762Z,13.08
2019-06-07T03:29:13.769Z,13.12
2019-06-07T03:31:47.405Z,13.05
2019-06-07T03:34:13.988Z,12.88
2019-06-07T03:36:43.667Z,12.93
2019-06-07T03:39:12.412Z,12.99
2019-06-07T03:42:02.520Z,12.99
2019-06-07T03:44:12.712Z,13.01
2019-06-07T03:46:42.757Z,13.01
2019-06-07T03:49:11.551Z,13.03
2019-06-07T03:51:40.987Z,12.87
2019-06-07T03:54:10.275Z,12.76
2019-06-07T03:56:41.150Z,12.92
2019-06-07T03:59:09.937Z,13.01
2019-06-07T04:01:41.137Z,12.92
2019-06-07T04:04:09.784Z,12.86
2019-06-07T04:06:42.321Z,12.94
2019-06-07T04:11:48.497Z,12.75
2019-06-07T04:14:18.719Z,12.63
2019-06-07T04:16:47.403Z,12.71
2019-06-07T04:19:16.582Z,12.87
2019-06-07T04:21:46.039Z,12.96
2019-06-07T04:26:53.168Z,13.06
2019-06-07T04:29:33.133Z,13.04
2019-06-07T04:31:52.866Z,13.05
2019-06-07T04:34:21.607Z,13.10
2019-06-07T04:39:37.817Z,13.14
2019-06-07T04:42:04.546Z,13.15
2019-06-07T04:44:39.457Z,13.18
2019-06-07T04:47:10.818Z,13.21
2019-06-07T04:49:44.154Z,13.31
2019-06-07T04:54:54.042Z,13.53
2019-06-07T04:57:23.369Z,13.56
2019-06-07T05:02:23.816Z,13.63
2019-06-07T05:04:53.217Z,13.68
2019-06-07T05:07:22.233Z,13.85
2019-06-07T05:12:30.024Z,13.94
2019-06-07T05:14:59.840Z,13.94
2019-06-07T05:17:31.253Z,14.02
2019-06-07T05:20:00.428Z,14.06
2019-06-07T05:25:07.917Z,14.19
2019-06-07T05:27:40.411Z,14.09
2019-06-07T05:30:50.933Z,14.13
2019-06-07T05:32:45.977Z,14.46
2019-06-07T05:35:14.490Z,14.53
2019-06-07T05:37:45.836Z,14.58
2019-06-07T05:40:21.454Z,14.73
2019-06-07T05:42:51.162Z,14.87
2019-06-07T05:45:31.978Z,14.84
2019-06-07T05:48:02.805Z,15.02
2019-06-07T05:50:43.658Z,15.03
2019-06-07T05:53:02.414Z,15.16
2019-06-07T05:55:32.637Z,15.11
2019-06-07T05:58:01.887Z,15.24
2019-06-07T06:00:38.068Z,15.31
2019-06-07T06:03:05.714Z,15.42
2019-06-07T06:05:36.506Z,15.43
2019-06-07T06:08:02.559Z,15.45
2019-06-07T06:13:11.501Z,15.79
2019-06-07T06:15:51.610Z,15.82
2019-06-07T06:18:11.606Z,15.75
2019-06-07T06:21:05.353Z,15.89
2019-06-07T06:23:11.616Z,15.95
2019-06-07T06:25:42.708Z,15.87
2019-06-07T06:28:12.945Z,16.30
2019-06-07T06:30:45.908Z,16.11
2019-06-07T06:33:30.853Z,16.25
2019-06-07T06:35:47.390Z,16.40
2019-06-07T06:41:14.362Z,16.42
2019-06-07T06:43:26.662Z,16.48
2019-06-07T06:45:55.975Z,16.63
2019-06-07T06:48:24.677Z,16.79
2019-06-07T06:50:53.285Z,16.60
2019-06-07T06:53:22.219Z,16.75
2019-06-07T06:55:51.526Z,16.79
2019-06-07T06:58:20.155Z,16.60
2019-06-07T07:06:23.304Z,17.06
2019-06-07T07:08:28.279Z,17.06
2019-06-07T07:10:57.702Z,17.00
2019-06-07T07:13:27.361Z,16.91
2019-06-07T07:15:58.282Z,17.02
2019-06-07T07:18:27.092Z,16.98
2019-06-07T07:20:57.564Z,17.36
2019-06-07T07:23:27.235Z,17.56
2019-06-07T07:25:59.503Z,17.30
2019-06-07T07:28:26.506Z,17.30
2019-06-07T07:34:20.971Z,17.92
2019-06-07T07:36:19.009Z,18.01
2019-06-07T07:38:33.023Z,18.04
2019-06-07T07:41:13.810Z,18.25
2019-06-07T07:43:32.866Z,18.25
2019-06-07T07:46:03.542Z,18.18
2019-06-07T07:48:33.846Z,18.20
2019-06-07T07:53:52.346Z,18.76
2019-06-07T07:56:11.695Z,19.07
2019-06-07T07:58:40.299Z,19.45
2019-06-07T08:01:11.173Z,19.76
2019-06-07T08:03:40.427Z,19.73
2019-06-07T08:08:51.318Z,19.03
2019-06-07T08:11:20.529Z,19.90
2019-06-07T08:13:50.609Z,20.33
2019-06-07T08:16:19.729Z,20.16
2019-06-07T08:18:52.851Z,20.58
2019-06-07T08:21:25.799Z,20.77
2019-06-07T08:23:56.033Z,21.55
2019-06-07T08:26:21.412Z,21.68
2019-06-07T08:28:53.099Z,21.24
2019-06-07T08:31:20.417Z,20.71
2019-06-07T08:33:52.628Z,21.89
2019-06-07T08:36:40.381Z,21.78
2019-06-07T08:38:58.009Z,20.68
2019-06-07T08:41:23.528Z,20.64
2019-06-07T08:43:55.267Z,19.94
2019-06-07T08:46:23.714Z,21.35
2019-06-07T08:48:53.943Z,22.19
2019-06-07T08:51:23.386Z,20.49
2019-06-07T08:54:08.488Z,21.51
2019-06-07T08:56:23.132Z,20.02
2019-06-07T08:58:59.372Z,21.52
2019-06-07T09:04:09.900Z,22.00
2019-06-07T09:09:14.490Z,21.28
2019-06-07T09:11:43.784Z,21.18
2019-06-07T09:14:12.336Z,21.59
2019-06-07T09:16:41.382Z,21.57
2019-06-07T09:19:11.400Z,21.22
2019-06-07T09:21:40.642Z,21.76
2019-06-07T09:24:11.969Z,22.23
2019-06-07T09:26:41.790Z,22.43
2019-06-07T09:29:12.081Z,23.02
2019-06-07T09:31:52.467Z,22.83
2019-06-07T09:34:15.159Z,21.90
2019-06-07T09:36:44.637Z,23.16
2019-06-07T09:39:13.636Z,23.62
2019-06-07T09:41:49.667Z,23.32
2019-06-07T09:44:23.662Z,22.20
2019-06-07T09:46:44.989Z,23.25
2019-06-07T09:51:51.656Z,22.03
2019-06-07T09:55:03.257Z,22.65
2019-06-07T09:56:51.593Z,23.11
2019-06-07T09:59:20.581Z,23.75
2019-06-07T10:01:52.029Z,22.86
2019-06-07T10:07:09.922Z,23.36
2019-06-07T10:12:04.574Z,21.78
2019-06-07T10:14:33.734Z,23.10
2019-06-07T10:17:03.446Z,23.11
2019-06-07T10:19:32.043Z,24.57
2019-06-07T10:22:01.517Z,25.61
2019-06-07T10:24:30.477Z,23.75
2019-06-07T10:26:59.678Z,22.71
2019-06-07T10:29:28.342Z,24.14
2019-06-07T10:31:57.741Z,23.84
2019-06-07T10:34:27.519Z,24.49
2019-06-07T10:36:56.212Z,24.28
2019-06-07T10:39:25.333Z,23.91
2019-06-07T10:41:54.206Z,23.93
2019-06-07T10:44:23.789Z,25.91
2019-06-07T10:46:52.891Z,26.72
2019-06-07T10:52:05.050Z,23.09
2019-06-07T10:54:34.149Z,24.92
2019-06-07T10:57:04.855Z,23.09
2019-06-07T10:59:33.443Z,23.62
2019-06-07T11:02:03.448Z,24.36
2019-06-07T11:04:32.174Z,24.54
2019-06-07T11:09:42.517Z,24.75
2019-06-07T11:12:15.130Z,24.01
2019-06-07T11:14:43.970Z,24.75
2019-06-07T11:17:13.448Z,22.68
2019-06-07T11:19:42.471Z,24.00
2019-06-07T11:24:49.240Z,23.14
2019-06-07T11:27:19.114Z,23.90
2019-06-07T11:29:48.412Z,24.44
2019-06-07T11:32:18.738Z,24.49
2019-06-07T11:34:48.514Z,22.40
2019-06-07T11:37:17.390Z,22.60
2019-06-07T11:39:46.321Z,23.15
2019-06-07T11:44:59.137Z,23.81
2019-06-07T11:47:30.776Z,24.19
2019-06-07T11:49:59.356Z,23.60
2019-06-07T11:52:28.772Z,23.25
2019-06-07T11:54:58.040Z,24.36
2019-06-07T11:57:26.631Z,23.45
2019-06-07T11:59:55.785Z,23.58
2019-06-07T12:02:24.739Z,24.08
2019-06-07T12:04:54.077Z,24.20
2019-06-07T12:07:22.703Z,24.36
2019-06-07T12:09:56.367Z,24.45
2019-06-07T12:12:22.555Z,24.99
2019-06-07T12:17:29.044Z,24.90
2019-06-07T12:19:58.140Z,24.13
2019-06-07T12:25:10.200Z,23.06
2019-06-07T12:27:39.428Z,24.48
2019-06-07T12:32:49.026Z,23.49
2019-06-07T12:35:19.832Z,23.92
2019-06-07T12:37:48.954Z,24.51
2019-06-07T12:40:27.725Z,24.50
2019-06-07T12:42:48.950Z,24.04
2019-06-07T12:45:41.238Z,24.29
2019-06-07T12:47:49.282Z,24.34
2019-06-07T12:50:21.541Z,24.34
2019-06-07T12:52:49.106Z,24.50
2019-06-07T12:55:20.427Z,24.37
2019-06-07T12:57:49.302Z,24.78
2019-06-07T13:00:18.461Z,23.98
2019-06-07T13:02:47.155Z,24.16
2019-06-07T13:05:17.864Z,24.07
2019-06-07T13:07:46.551Z,23.93
2019-06-07T13:10:17.778Z,24.98
2019-06-07T13:12:46.985Z,24.74
2019-06-07T13:15:18.786Z,24.59
2019-06-07T13:17:46.968Z,24.60
2019-06-07T13:20:16.166Z,24.58
2019-06-07T13:22:44.822Z,24.18
2019-06-07T13:25:16.304Z,23.99
2019-06-07T13:27:44.853Z,24.27
2019-06-07T13:30:13.535Z,23.88
2019-06-07T13:32:42.185Z,24.41
2019-06-07T13:35:12.007Z,24.68
2019-06-07T13:37:42.140Z,24.34
2019-06-07T13:40:11.833Z,24.19
2019-06-07T13:45:24.162Z,24.90
2019-06-07T13:47:53.048Z,24.52
2019-06-07T13:50:23.899Z,24.46
2019-06-07T13:52:53.073Z,24.30
2019-06-07T13:55:22.000Z,24.87
2019-06-07T13:57:50.608Z,24.35
2019-06-07T14:00:21.130Z,24.82
2019-06-07T14:02:50.162Z,25.15
2019-06-07T14:05:20.814Z,24.97
2019-06-07T14:07:50.180Z,24.56
2019-06-07T14:10:19.432Z,24.61
2019-06-07T14:12:48.106Z,24.38
2019-06-07T14:15:17.100Z,24.72
2019-06-07T14:17:46.001Z,24.41
2019-06-07T14:20:15.910Z,24.33
2019-06-07T14:22:45.434Z,24.89
2019-06-07T14:25:15.136Z,25.13
2019-06-07T14:27:43.708Z,25.05
2019-06-07T14:32:54.816Z,24.49
2019-06-07T14:35:24.498Z,24.18
2019-06-07T14:37:53.236Z,24.33
2019-06-07T14:40:23.163Z,25.17
2019-06-07T14:45:34.351Z,24.26
2019-06-07T14:50:46.989Z,24.67
2019-06-07T14:53:16.806Z,24.19
2019-06-07T14:55:46.099Z,24.14
2019-06-07T14:58:15.782Z,24.00
2019-06-07T15:00:48.024Z,24.21
2019-06-07T15:03:16.860Z,24.20
2019-06-07T15:08:23.194Z,24.82
2019-06-07T15:10:54.754Z,24.54
2019-06-07T15:13:23.698Z,25.03
2019-06-07T15:15:52.391Z,24.29
2019-06-07T15:20:58.086Z,24.65
2019-06-07T15:23:28.817Z,24.94
2019-06-07T15:28:38.890Z,25.17
2019-06-07T15:31:07.955Z,24.33
2019-06-07T15:33:38.363Z,24.19
2019-06-07T15:36:07.223Z,24.39
2019-06-07T15:38:37.197Z,24.53
2019-06-07T15:41:07.211Z,24.58
2019-06-07T15:43:37.447Z,24.76
2019-06-07T15:46:06.507Z,24.41
2019-06-07T15:48:36.084Z,24.53
2019-06-07T15:51:05.149Z,24.19
2019-06-07T15:53:39.095Z,24.20
2019-06-07T15:56:04.157Z,24.53
2019-06-07T15:58:33.197Z,24.39
2019-06-07T16:01:01.916Z,24.19
2019-06-07T16:03:31.479Z,24.54
2019-06-07T16:08:40.764Z,24.45
2019-06-07T16:11:11.204Z,24.29
2019-06-07T16:13:40.998Z,24.59
2019-06-07T16:16:10.045Z,24.47
2019-06-07T16:18:39.685Z,24.17
2019-06-07T16:21:08.869Z,24.24
2019-06-07T16:23:37.887Z,24.53
2019-06-07T16:26:06.684Z,24.61
2019-06-07T16:28:36.281Z,24.03
2019-06-07T16:31:04.924Z,23.81
2019-06-07T16:33:34.694Z,23.83
2019-06-07T16:36:03.444Z,23.74
2019-06-07T16:38:32.462Z,23.95
2019-06-07T16:41:02.049Z,23.69
2019-06-07T16:43:31.102Z,23.83
2019-06-07T16:46:00.326Z,24.02
2019-06-07T16:48:29.486Z,23.94
2019-06-07T16:50:58.062Z,23.89
2019-06-07T16:53:28.767Z,23.74
2019-06-07T16:55:58.302Z,23.77
2019-06-07T16:58:26.979Z,24.02
2019-06-07T17:00:55.685Z,24.17
2019-06-07T17:03:27.670Z,23.82
2019-06-07T17:05:56.322Z,24.15
2019-06-07T17:08:25.165Z,24.06
2019-06-07T17:13:34.063Z,24.15
2019-06-07T17:16:03.550Z,24.12
2019-06-07T17:18:32.136Z,24.02
2019-06-07T17:21:01.219Z,23.83
2019-06-07T17:23:30.652Z,23.91
2019-06-07T17:25:59.358Z,23.85
2019-06-07T17:28:28.738Z,23.96
2019-06-07T17:33:34.938Z,24.03
2019-06-07T17:36:03.787Z,23.86
2019-06-07T17:38:33.506Z,23.66
2019-06-07T17:41:02.161Z,23.82
2019-06-07T17:43:32.130Z,23.70
2019-06-07T17:46:01.141Z,23.77
2019-06-07T17:51:11.522Z,23.58
2019-06-07T17:56:18.051Z,23.49
2019-06-07T17:58:46.716Z,23.44
2019-06-07T18:01:15.576Z,23.34
2019-06-07T18:03:49.545Z,23.40
2019-06-07T18:09:03.302Z,23.38
2019-06-07T18:11:32.411Z,23.25
2019-06-07T18:14:10.299Z,23.31
2019-06-07T18:16:32.430Z,23.34
2019-06-07T18:19:01.910Z,23.17
2019-06-07T18:21:31.100Z,23.38
2019-06-07T18:24:00.437Z,23.18
2019-06-07T18:26:32.097Z,23.17
2019-06-07T18:29:00.712Z,23.22
2019-06-07T18:34:08.945Z,23.16
2019-06-07T18:36:37.866Z,23.14
2019-06-07T18:39:07.626Z,23.05
2019-06-07T18:41:36.230Z,23.01
2019-06-07T18:46:42.442Z,22.90
2019-06-07T18:49:11.368Z,22.93
2019-06-07T18:51:39.987Z,22.86
2019-06-07T18:56:46.800Z,22.78
2019-06-07T18:59:16.022Z,22.73
2019-06-07T19:04:28.708Z,22.70
2019-06-07T19:06:58.656Z,22.64
2019-06-07T19:09:27.560Z,22.71
2019-06-07T19:11:57.281Z,22.49
2019-06-07T19:17:03.214Z,22.30
2019-06-07T19:19:32.204Z,22.16
2019-06-07T19:22:01.706Z,22.09
2019-06-07T19:27:09.310Z,22.17
2019-06-07T19:29:37.883Z,22.11
2019-06-07T19:34:45.043Z,22.10
2019-06-07T19:37:14.400Z,22.04
2019-06-07T19:42:49.720Z,21.85
2019-06-07T19:45:30.188Z,21.72
2019-06-07T19:50:38.264Z,21.65
2019-06-07T19:53:07.083Z,21.64
2019-06-07T19:58:14.731Z,21.45
2019-06-07T20:00:43.449Z,21.35
2019-06-07T20:03:12.746Z,21.27
2019-06-07T20:05:41.434Z,21.27
2019-06-07T20:10:47.627Z,21.24
2019-06-07T20:13:19.026Z,21.24
2019-06-07T20:15:47.175Z,21.16
2019-06-07T20:18:15.817Z,21.09
2019-06-07T20:20:44.503Z,21.05
2019-06-07T20:23:17.124Z,21.05
2019-06-07T20:25:46.120Z,21.05
2019-06-07T20:30:44.063Z,20.66
2019-06-07T20:33:13.172Z,20.67
2019-06-07T20:38:22.400Z,20.77
2019-06-07T20:40:51.595Z,20.86
2019-06-07T20:43:20.659Z,20.87
2019-06-07T20:45:49.792Z,20.89
2019-06-07T20:50:56.341Z,21.08
2019-06-07T20:53:25.233Z,21.03
2019-06-07T20:58:31.538Z,20.99
2019-06-07T21:01:00.616Z,20.99
2019-06-07T21:03:29.276Z,21.12
2019-06-07T21:05:59.288Z,21.04
2019-06-07T21:08:28.697Z,21.19
2019-06-07T21:10:59.848Z,21.24
2019-06-07T21:13:29.487Z,21.22
2019-06-07T21:15:59.889Z,21.06
2019-06-07T21:18:28.973Z,21.06
2019-06-07T21:20:58.497Z,19.81
2019-06-07T21:23:27.434Z,19.47
2019-06-07T21:25:56.708Z,19.42
2019-06-07T21:28:25.789Z,18.90
2019-06-07T21:30:55.372Z,18.90
2019-06-07T21:33:24.217Z,18.98
2019-06-07T21:35:53.226Z,18.61
2019-06-07T21:38:22.417Z,18.61
2019-06-07T21:40:51.679Z,18.41
2019-06-07T21:43:20.858Z,18.08
2019-06-07T21:46:04.405Z,17.98
2019-06-07T21:48:21.353Z,18.16
2019-06-07T21:50:50.852Z,17.99
2019-06-07T21:53:20.105Z,17.72
2019-06-07T21:55:48.971Z,17.79
2019-06-07T21:58:18.053Z,17.33
2019-06-07T22:01:18.855Z,17.23
2019-06-07T22:03:47.907Z,17.22
2019-06-07T22:06:16.539Z,17.24
2019-06-07T22:11:25.513Z,17.19
2019-06-07T22:13:54.373Z,16.80
2019-06-07T22:16:29.155Z,16.70
2019-06-07T22:18:54.500Z,16.46
2019-06-07T22:21:23.804Z,16.18
2019-06-07T22:23:52.457Z,16.36
2019-06-07T22:26:21.629Z,16.40
2019-06-07T22:28:50.986Z,16.52
2019-06-07T22:31:20.306Z,16.52
2019-06-07T22:33:49.062Z,16.58
2019-06-07T22:36:19.479Z,16.41
2019-06-07T22:38:49.438Z,16.14
2019-06-07T22:41:18.954Z,16.18
2019-06-07T22:43:47.776Z,16.17
2019-06-07T22:46:16.733Z,15.90
2019-06-07T22:48:45.514Z,16.17
2019-06-07T22:53:51.747Z,16.38
2019-06-07T22:56:26.523Z,16.42
2019-06-07T22:58:55.991Z,16.28
2019-06-07T23:01:24.572Z,16.35
2019-06-07T23:03:53.269Z,16.06
2019-06-07T23:06:21.962Z,16.18
2019-06-07T23:08:50.833Z,16.38
2019-06-07T23:11:19.765Z,16.24
2019-06-07T23:13:48.380Z,16.23
2019-06-07T23:16:17.786Z,16.13
2019-06-07T23:18:46.462Z,16.21
2019-06-07T23:21:15.917Z,16.29
2019-06-07T23:26:23.239Z,15.94
2019-06-07T23:28:52.206Z,15.86
2019-06-07T23:31:20.904Z,15.81
2019-06-07T23:33:49.904Z,15.90
2019-06-07T23:38:56.002Z,15.85
2019-06-07T23:44:02.544Z,15.64
2019-06-07T23:49:17.608Z,15.66
2019-06-07T23:51:46.658Z,15.53
2019-06-07T23:54:15.668Z,15.71
2019-06-07T23:56:44.314Z,15.32
2019-06-07T23:59:14.219Z,15.38
